createdAt,value
2023-04-03T00:02:41.811Z,1.38
2023-04-03T00:05:27.435Z,1.55
2023-04-03T00:08:12.886Z,1.73
2023-04-03T00:10:58.580Z,1.50
2023-04-03T00:13:44.066Z,1.58
2023-04-03T00:16:29.738Z,1.73
2023-04-03T00:19:15.700Z,1.60
2023-04-03T00:22:00.722Z,1.25
2023-04-03T00:24:45.849Z,1.73
2023-04-03T00:27:30.944Z,1.33
2023-04-03T00:30:19.325Z,1.55
2023-04-03T00:33:04.622Z,1.70
2023-04-03T00:35:50.470Z,2.00
2023-04-03T00:38:35.984Z,2.33
2023-04-03T00:41:21.127Z,2.05
2023-04-03T00:44:28.982Z,1.85
2023-04-03T00:47:17.566Z,1.80
2023-04-03T00:50:03.280Z,1.65
2023-04-03T00:52:50.005Z,2.15
2023-04-03T00:55:37.151Z,1.58
2023-04-03T00:58:29.324Z,2.17
2023-04-03T01:01:18.573Z,1.60
2023-04-03T01:04:05.151Z,1.50
2023-04-03T01:06:50.466Z,1.77
2023-04-03T01:09:36.347Z,1.80
2023-04-03T01:12:25.482Z,1.98
2023-04-03T01:15:17.314Z,1.48
2023-04-03T01:18:03.788Z,1.48
2023-04-03T01:21:04.254Z,1.73
2023-04-03T01:24:09.331Z,1.52
2023-04-03T01:26:54.337Z,1.67
2023-04-03T01:29:41.114Z,1.85
2023-04-03T01:32:26.358Z,1.48
2023-04-03T01:35:11.655Z,1.80
2023-04-03T01:37:56.825Z,1.75
2023-04-03T01:40:41.749Z,1.95
2023-04-03T01:43:27.103Z,1.70
2023-04-03T01:46:12.450Z,1.77
2023-04-03T01:48:57.568Z,1.90
2023-04-03T01:51:42.699Z,1.60
2023-04-03T01:54:27.532Z,1.70
2023-04-03T01:57:14.052Z,2.00
2023-04-03T01:59:59.158Z,1.75
2023-04-03T02:02:44.300Z,1.80
2023-04-03T02:05:29.598Z,2.13
2023-04-03T02:08:15.379Z,1.63
2023-04-03T02:11:00.372Z,1.60
2023-04-03T02:13:45.443Z,2.58
2023-04-03T02:16:31.766Z,1.90
2023-04-03T02:19:17.247Z,1.80
2023-04-03T02:22:04.182Z,1.73
2023-04-03T02:24:49.315Z,1.75
2023-04-03T02:27:34.196Z,2.40
2023-04-03T02:30:19.225Z,1.95
2023-04-03T02:33:04.419Z,1.55
2023-04-03T02:35:54.241Z,1.92
2023-04-03T02:41:26.498Z,1.92
2023-04-03T02:44:12.485Z,2.10
2023-04-03T02:46:57.322Z,1.73
2023-04-03T02:49:44.585Z,1.80
2023-04-03T02:52:29.529Z,1.80
2023-04-03T02:55:16.931Z,2.03
2023-04-03T02:58:01.958Z,2.03
2023-04-03T03:00:47.143Z,2.42
2023-04-03T03:03:32.117Z,2.00
2023-04-03T03:06:18.192Z,2.08
2023-04-03T03:09:04.552Z,2.10
2023-04-03T03:11:49.469Z,1.92
2023-04-03T03:14:34.489Z,2.05
2023-04-03T03:17:19.764Z,1.90
2023-04-03T03:20:06.820Z,1.52
2023-04-03T03:22:52.069Z,1.70
2023-04-03T03:25:41.306Z,1.83
2023-04-03T03:28:26.637Z,1.90
2023-04-03T03:31:12.187Z,1.58
2023-04-03T03:33:57.088Z,1.77
2023-04-03T03:36:42.268Z,1.45
2023-04-03T03:39:27.723Z,1.63
2023-04-03T03:42:13.006Z,1.70
2023-04-03T03:44:58.192Z,2.38
2023-04-03T03:47:43.485Z,1.80
2023-04-03T03:50:28.329Z,2.35
2023-04-03T03:53:13.187Z,2.92
2023-04-03T03:55:58.042Z,2.92
2023-04-03T03:58:43.141Z,2.10
2023-04-03T04:01:28.405Z,1.40
2023-04-03T04:04:13.354Z,2.20
2023-04-03T04:06:58.365Z,1.55
2023-04-03T04:09:43.525Z,2.00
2023-04-03T04:12:28.769Z,2.05
2023-04-03T04:15:13.894Z,1.80
2023-04-03T04:17:59.180Z,2.33
2023-04-03T04:20:46.610Z,1.40
2023-04-03T04:23:31.612Z,2.17
2023-04-03T04:26:16.885Z,1.70
2023-04-03T04:29:01.964Z,1.88
2023-04-03T04:31:47.038Z,1.65
2023-04-03T04:34:32.419Z,2.13
2023-04-03T04:37:17.585Z,1.80
2023-04-03T04:40:02.900Z,2.13
2023-04-03T04:42:48.197Z,1.83
2023-04-03T04:45:33.679Z,1.92
2023-04-03T04:48:18.488Z,1.63
2023-04-03T04:51:03.994Z,2.00
2023-04-03T04:53:49.123Z,1.60
2023-04-03T04:56:34.270Z,1.85
2023-04-03T04:59:20.661Z,2.25
2023-04-03T05:02:07.289Z,1.90
2023-04-03T05:04:53.285Z,2.55
2023-04-03T05:07:38.534Z,1.83
2023-04-03T05:10:23.656Z,1.80
2023-04-03T05:13:08.965Z,1.98
2023-04-03T05:15:54.124Z,2.10
2023-04-03T05:18:39.321Z,2.05
2023-04-03T05:21:25.947Z,2.08
2023-04-03T05:24:10.957Z,1.80
2023-04-03T05:26:55.988Z,2.00
2023-04-03T05:29:45.225Z,2.00
2023-04-03T05:32:30.504Z,1.92
2023-04-03T05:35:16.048Z,2.13
2023-04-03T05:38:01.541Z,2.08
2023-04-03T05:40:47.276Z,2.20
2023-04-03T05:43:33.648Z,2.38
2023-04-03T05:46:20.320Z,2.25
2023-04-03T05:49:05.924Z,1.70
2023-04-03T05:51:52.366Z,2.08
2023-04-03T05:54:37.241Z,2.33
2023-04-03T05:57:23.179Z,2.08
2023-04-03T06:00:10.617Z,3.30
2023-04-03T06:02:56.229Z,3.10
2023-04-03T06:05:42.605Z,2.35
2023-04-03T06:08:27.917Z,2.22
2023-04-03T06:11:13.332Z,2.42
2023-04-03T06:13:58.558Z,2.50
2023-04-03T06:16:44.633Z,1.90
2023-04-03T06:19:30.145Z,2.67
2023-04-03T06:22:15.559Z,2.10
2023-04-03T06:25:00.669Z,2.38
2023-04-03T06:27:46.487Z,2.38
2023-04-03T06:30:31.389Z,2.42
2023-04-03T06:33:16.656Z,2.28
2023-04-03T06:36:06.320Z,2.75
2023-04-03T06:38:51.724Z,2.65
2023-04-03T06:41:37.315Z,2.95
2023-04-03T06:44:22.604Z,2.05
2023-04-03T06:47:07.635Z,1.80
2023-04-03T06:49:52.910Z,1.90
2023-04-03T06:52:38.336Z,2.40
2023-04-03T06:55:23.744Z,2.47
2023-04-03T06:58:09.016Z,2.45
2023-04-03T07:00:54.044Z,2.25
2023-04-03T07:03:41.140Z,1.88
2023-04-03T07:06:29.207Z,2.30
2023-04-03T07:09:15.451Z,2.42
2023-04-03T07:12:01.061Z,2.38
2023-04-03T07:14:46.105Z,2.45
2023-04-03T07:17:31.201Z,3.00
2023-04-03T07:20:16.268Z,2.50
2023-04-03T07:23:04.283Z,3.00
2023-04-03T07:25:50.568Z,2.33
2023-04-03T07:28:37.529Z,3.55
2023-04-03T07:31:22.861Z,4.55
2023-04-03T07:34:07.946Z,3.80
2023-04-03T07:36:53.277Z,3.88
2023-04-03T07:39:38.490Z,4.18
2023-04-03T07:42:23.513Z,3.20
2023-04-03T07:45:09.171Z,3.30
2023-04-03T07:47:54.149Z,2.90
2023-04-03T07:50:41.845Z,3.35
2023-04-03T07:53:26.785Z,4.10
2023-04-03T07:56:11.884Z,3.30
2023-04-03T07:58:56.911Z,3.22
2023-04-03T08:01:42.378Z,3.17
2023-04-03T08:04:27.944Z,3.85
2023-04-03T08:07:12.946Z,3.00
2023-04-03T08:09:58.273Z,4.10
2023-04-03T08:12:43.323Z,4.18
2023-04-03T08:15:28.770Z,4.13
2023-04-03T08:18:16.207Z,3.82
2023-04-03T08:21:01.370Z,5.05
2023-04-03T08:23:49.945Z,4.57
2023-04-03T08:26:35.901Z,4.72
2023-04-03T08:29:22.301Z,4.85
2023-04-03T08:32:07.464Z,5.25
2023-04-03T08:34:52.727Z,5.30
2023-04-03T08:37:38.634Z,6.03
2023-04-03T08:40:24.401Z,6.28
2023-04-03T08:43:33.689Z,6.00
2023-04-03T08:46:23.576Z,6.40
2023-04-03T08:52:09.549Z,7.38
2023-04-03T08:55:02.232Z,7.53
2023-04-03T08:57:49.988Z,7.47
2023-04-03T09:00:58.198Z,8.07
2023-04-03T09:03:43.437Z,6.65
2023-04-03T09:06:36.364Z,7.32
2023-04-03T09:09:42.697Z,7.10
2023-04-03T09:12:37.664Z,8.05
2023-04-03T09:15:37.898Z,7.22
2023-04-03T09:18:31.688Z,6.55
2023-04-03T09:21:33.020Z,6.35
2023-04-03T09:24:18.960Z,6.10
2023-04-03T09:27:11.099Z,5.38
2023-04-03T09:29:58.245Z,5.00
2023-04-03T09:32:48.240Z,4.57
2023-04-03T09:35:47.488Z,4.90
2023-04-03T09:38:34.907Z,4.15
2023-04-03T09:41:20.202Z,3.97
2023-04-03T09:44:22.193Z,3.75
2023-04-03T09:47:27.737Z,3.55
2023-04-03T09:50:15.972Z,3.80
2023-04-03T09:53:07.070Z,3.03
2023-04-03T09:55:52.535Z,3.67
2023-04-03T09:58:50.371Z,3.40
2023-04-03T10:01:40.110Z,4.07
2023-04-03T10:04:25.435Z,3.80
2023-04-03T10:07:36.198Z,4.15
2023-04-03T10:10:26.877Z,4.55
2023-04-03T10:13:21.066Z,4.28
2023-04-03T10:16:15.594Z,4.05
2023-04-03T10:19:39.300Z,3.97
2023-04-03T10:22:30.466Z,4.22
2023-04-03T10:25:39.839Z,4.22
2023-04-03T10:31:26.484Z,3.42
2023-04-03T10:34:30.066Z,3.28
2023-04-03T10:37:25.239Z,3.33
2023-04-03T10:40:36.095Z,3.45
2023-04-03T10:43:37.616Z,3.10
2023-04-03T10:46:22.764Z,3.38
2023-04-03T10:49:32.343Z,3.03
2023-04-03T10:52:47.146Z,3.20
2023-04-03T10:55:42.946Z,3.45
2023-04-03T10:58:40.314Z,3.20
2023-04-03T11:01:36.266Z,3.90
2023-04-03T11:04:25.239Z,3.95
2023-04-03T11:07:19.370Z,3.75
2023-04-03T11:10:14.836Z,3.80
2023-04-03T11:13:13.307Z,3.20
2023-04-03T11:15:59.217Z,2.72
2023-04-03T11:18:51.944Z,2.85
2023-04-03T11:21:49.958Z,2.63
2023-04-03T11:24:39.455Z,2.53
2023-04-03T11:27:25.247Z,2.92
2023-04-03T11:30:19.550Z,2.70
2023-04-03T11:33:23.143Z,2.92
2023-04-03T11:36:25.444Z,2.85
2023-04-03T11:39:33.106Z,3.28
2023-04-03T11:42:40.072Z,2.72
2023-04-03T11:45:28.469Z,2.90
2023-04-03T11:48:24.965Z,2.78
2023-04-03T11:51:13.737Z,2.53
2023-04-03T11:54:45.162Z,2.80
2023-04-03T11:57:47.012Z,2.20
2023-04-03T12:00:44.510Z,3.53
2023-04-03T12:03:32.710Z,2.40
2023-04-03T12:06:18.051Z,2.30
2023-04-03T12:09:23.252Z,2.30
2023-04-03T12:12:40.545Z,2.00
2023-04-03T12:15:50.230Z,2.03
2023-04-03T12:18:51.341Z,1.83
2023-04-03T12:22:03.728Z,1.98
2023-04-03T12:24:51.666Z,2.00
2023-04-03T12:27:43.211Z,2.42
2023-04-03T12:30:31.340Z,1.77
2023-04-03T12:33:38.420Z,2.10
2023-04-03T12:37:01.660Z,2.17
2023-04-03T12:39:56.561Z,2.38
2023-04-03T12:42:52.283Z,2.40
2023-04-03T12:46:09.528Z,2.22
2023-04-03T12:48:57.651Z,1.88
2023-04-03T12:51:45.728Z,1.90
2023-04-03T12:54:37.487Z,1.63
2023-04-03T12:57:26.382Z,1.63
2023-04-03T13:00:36.395Z,1.90
2023-04-03T13:03:27.857Z,1.67
2023-04-03T13:06:25.325Z,1.40
2023-04-03T13:09:31.280Z,1.63
2023-04-03T13:12:17.933Z,2.15
2023-04-03T13:15:21.198Z,1.33
2023-04-03T13:18:06.650Z,1.63
2023-04-03T13:20:52.965Z,1.23
2023-04-03T13:23:41.506Z,1.67
2023-04-03T13:26:30.278Z,1.58
2023-04-03T13:29:34.442Z,1.77
2023-04-03T13:32:25.633Z,1.50
2023-04-03T13:35:41.592Z,1.77
2023-04-03T13:38:32.465Z,1.20
2023-04-03T13:41:32.931Z,1.90
2023-04-03T13:44:19.176Z,1.73
2023-04-03T13:47:13.310Z,1.42
2023-04-03T13:50:13.648Z,1.92
2023-04-03T13:53:12.345Z,1.92
2023-04-03T13:56:03.618Z,1.80
2023-04-03T13:59:01.929Z,2.13
2023-04-03T14:01:52.671Z,1.40
2023-04-03T14:04:37.895Z,1.40
2023-04-03T14:07:23.258Z,1.83
2023-04-03T14:10:08.734Z,1.90
2023-04-03T14:12:53.814Z,2.00
2023-04-03T14:15:39.465Z,2.22
2023-04-03T14:18:25.030Z,2.47
2023-04-03T14:21:13.236Z,2.30
2023-04-03T14:23:58.516Z,2.13
2023-04-03T14:26:44.787Z,2.60
2023-04-03T14:29:29.860Z,2.88
2023-04-03T14:32:17.060Z,2.25
2023-04-03T14:35:04.259Z,2.45
2023-04-03T14:37:49.890Z,2.58
2023-04-03T14:40:35.630Z,2.95
2023-04-03T14:43:23.165Z,3.15
2023-04-03T14:46:23.599Z,3.28
2023-04-03T14:49:19.105Z,2.90
2023-04-03T14:52:04.737Z,2.65
2023-04-03T14:54:50.853Z,3.17
2023-04-03T14:57:36.255Z,3.20
2023-04-03T15:00:23.162Z,2.97
2023-04-03T15:03:17.736Z,3.95
2023-04-03T15:06:03.246Z,4.05
2023-04-03T15:08:48.870Z,3.03
2023-04-03T15:11:34.628Z,2.42
2023-04-03T15:14:30.025Z,3.55
2023-04-03T15:17:23.716Z,3.60
2023-04-03T15:20:15.178Z,4.45
2023-04-03T15:23:02.229Z,3.80
2023-04-03T15:25:49.682Z,3.95
2023-04-03T15:28:38.630Z,4.65
2023-04-03T15:31:24.102Z,3.90
2023-04-03T15:34:09.141Z,4.22
2023-04-03T15:36:54.219Z,4.20
2023-04-03T15:39:39.102Z,3.85
2023-04-03T15:42:24.043Z,4.20
2023-04-03T15:45:10.413Z,4.10
2023-04-03T15:47:55.442Z,3.95
2023-04-03T15:50:40.945Z,4.38
2023-04-03T15:53:26.195Z,3.47
2023-04-03T15:56:12.855Z,3.78
2023-04-03T15:58:57.742Z,3.67
2023-04-03T16:01:43.680Z,3.00
2023-04-03T16:04:28.971Z,3.42
2023-04-03T16:07:14.392Z,3.55
2023-04-03T16:09:59.779Z,3.05
2023-04-03T16:12:45.832Z,3.35
2023-04-03T16:15:32.114Z,3.33
2023-04-03T16:18:19.332Z,2.90
2023-04-03T16:21:04.594Z,3.00
2023-04-03T16:23:50.367Z,2.78
2023-04-03T16:26:35.801Z,2.75
2023-04-03T16:29:21.128Z,3.28
2023-04-03T16:32:06.414Z,3.92
2023-04-03T16:34:52.594Z,3.22
2023-04-03T16:37:39.842Z,3.00
2023-04-03T16:40:25.399Z,2.63
2023-04-03T16:43:11.385Z,2.92
2023-04-03T16:45:56.307Z,2.80
2023-04-03T16:48:41.485Z,2.90
2023-04-03T16:51:26.450Z,3.25
2023-04-03T16:54:14.439Z,3.17
2023-04-03T16:56:59.673Z,2.53
2023-04-03T16:59:44.757Z,2.50
2023-04-03T17:02:30.308Z,2.55
2023-04-03T17:05:15.495Z,2.10
2023-04-03T17:08:01.986Z,2.40
2023-04-03T17:10:48.743Z,2.47
2023-04-03T17:13:35.434Z,2.22
2023-04-03T17:16:21.735Z,2.03
2023-04-03T17:19:07.366Z,2.47
2023-04-03T17:21:52.896Z,2.72
2023-04-03T17:24:38.211Z,1.95
2023-04-03T17:27:23.816Z,2.45
2023-04-03T17:30:09.398Z,2.55
2023-04-03T17:32:54.491Z,2.42
2023-04-03T17:35:39.736Z,2.35
2023-04-03T17:38:25.240Z,2.85
2023-04-03T17:41:10.579Z,2.85
2023-04-03T17:43:56.956Z,2.85
2023-04-03T17:46:42.081Z,1.95
2023-04-03T17:49:27.241Z,2.35
2023-04-03T17:52:12.269Z,2.53
2023-04-03T17:54:57.670Z,2.42
2023-04-03T17:57:43.970Z,2.15
2023-04-03T18:00:28.916Z,2.70
2023-04-03T18:03:13.915Z,3.10
2023-04-03T18:06:03.307Z,3.25
2023-04-03T18:08:51.328Z,2.70
2023-04-03T18:11:36.619Z,2.88
2023-04-03T18:14:25.644Z,2.92
2023-04-03T18:17:11.311Z,2.72
2023-04-03T18:19:56.608Z,2.90
2023-04-03T18:22:42.399Z,4.75
2023-04-03T18:25:27.486Z,4.65
2023-04-03T18:28:13.268Z,3.80
2023-04-03T18:31:00.206Z,3.85
2023-04-03T18:33:45.455Z,3.90
2023-04-03T18:36:30.607Z,3.55
2023-04-03T18:39:15.602Z,3.35
2023-04-03T18:42:06.670Z,3.40
2023-04-03T18:44:56.839Z,3.15
2023-04-03T18:50:26.712Z,2.90
2023-04-03T18:53:12.077Z,3.05
2023-04-03T18:55:57.076Z,2.38
2023-04-03T18:58:42.233Z,2.25
2023-04-03T19:01:27.976Z,1.92
2023-04-03T19:04:13.911Z,1.95
2023-04-03T19:06:59.889Z,2.10
2023-04-03T19:09:45.406Z,1.83
2023-04-03T19:12:30.950Z,1.92
2023-04-03T19:15:19.326Z,1.48
2023-04-03T19:18:04.875Z,2.03
2023-04-03T19:20:50.389Z,1.80
2023-04-03T19:23:36.064Z,2.03
2023-04-03T19:26:21.546Z,2.00
2023-04-03T19:29:06.948Z,1.90
2023-04-03T19:31:52.495Z,2.10
2023-04-03T19:34:37.630Z,2.05
2023-04-03T19:37:24.910Z,2.00
2023-04-03T19:40:10.278Z,2.25
2023-04-03T19:42:55.573Z,2.50
2023-04-03T19:45:41.716Z,2.38
2023-04-03T19:48:27.176Z,2.15
2023-04-03T19:51:12.705Z,2.35
2023-04-03T19:53:57.946Z,2.05
2023-04-03T19:56:43.053Z,2.22
2023-04-03T19:59:28.305Z,2.40
2023-04-03T20:02:13.404Z,2.30
2023-04-03T20:04:58.563Z,2.35
2023-04-03T20:07:43.411Z,2.53
2023-04-03T20:10:28.340Z,1.88
2023-04-03T20:13:13.921Z,2.22
2023-04-03T20:16:04.810Z,2.85
2023-04-03T20:18:52.273Z,2.38
2023-04-03T20:21:37.520Z,2.78
2023-04-03T20:24:22.700Z,2.20
2023-04-03T20:27:07.700Z,2.28
2023-04-03T20:29:52.955Z,2.78
2023-04-03T20:32:37.965Z,2.47
2023-04-03T20:35:23.289Z,2.50
2023-04-03T20:38:08.720Z,2.92
2023-04-03T20:40:54.101Z,2.42
2023-04-03T20:43:40.198Z,2.60
2023-04-03T20:46:38.242Z,2.40
2023-04-03T20:49:33.879Z,3.00
2023-04-03T20:52:18.856Z,3.13
2023-04-03T20:55:04.927Z,3.08
2023-04-03T20:57:54.560Z,3.80
2023-04-03T21:00:41.130Z,8.55
2023-04-03T21:03:29.374Z,7.93
2023-04-03T21:06:52.416Z,8.48
2023-04-03T21:10:15.746Z,4.70
2023-04-03T21:13:38.509Z,4.30
2023-04-03T21:16:23.358Z,3.70
2023-04-03T21:19:15.773Z,4.15
2023-04-03T21:22:01.539Z,4.07
2023-04-03T21:24:46.454Z,3.85
2023-04-03T21:27:32.077Z,3.50
2023-04-03T21:30:17.740Z,3.40
2023-04-03T21:33:03.142Z,3.13
2023-04-03T21:35:48.672Z,3.13
2023-04-03T21:38:36.118Z,3.35
2023-04-03T21:41:22.010Z,4.03
2023-04-03T21:44:07.730Z,3.50
2023-04-03T21:46:55.827Z,4.00
2023-04-03T21:49:41.573Z,4.10
2023-04-03T21:52:27.473Z,4.30
2023-04-03T21:55:12.574Z,3.85
2023-04-03T21:57:58.170Z,4.00
2023-04-03T22:00:43.339Z,4.47
2023-04-03T22:03:28.718Z,4.07
2023-04-03T22:06:16.275Z,3.92
2023-04-03T22:09:01.473Z,4.13
2023-04-03T22:11:46.762Z,3.03
2023-04-03T22:14:32.021Z,3.78
2023-04-03T22:17:17.055Z,3.28
2023-04-03T22:20:01.938Z,3.22
2023-04-03T22:22:50.616Z,3.35
2023-04-03T22:25:36.308Z,3.43
2023-04-03T22:28:21.812Z,3.50
2023-04-03T22:31:08.073Z,4.03
2023-04-03T22:33:54.586Z,3.50
2023-04-03T22:36:42.921Z,3.00
2023-04-03T22:39:28.007Z,3.05
2023-04-03T22:42:12.902Z,3.63
2023-04-03T22:44:59.271Z,3.08
2023-04-03T22:47:44.398Z,3.90
2023-04-03T22:50:30.209Z,3.80
2023-04-03T22:53:15.989Z,3.47
2023-04-03T22:56:03.519Z,3.70
2023-04-03T22:58:48.456Z,3.00
2023-04-03T23:01:33.529Z,3.47
2023-04-03T23:04:18.859Z,3.20
2023-04-03T23:07:03.884Z,3.63
2023-04-03T23:09:48.785Z,3.47
2023-04-03T23:12:38.380Z,3.70
2023-04-03T23:15:23.495Z,3.80
2023-04-03T23:18:08.780Z,4.00
2023-04-03T23:20:55.042Z,4.13
2023-04-03T23:23:40.699Z,4.22
2023-04-03T23:26:26.415Z,4.47
2023-04-03T23:29:11.481Z,3.63
2023-04-03T23:31:56.722Z,4.22
2023-04-03T23:34:42.102Z,3.80
2023-04-03T23:37:27.369Z,3.65
2023-04-03T23:40:12.712Z,3.60
2023-04-03T23:42:57.684Z,4.22
2023-04-03T23:45:45.036Z,4.20
2023-04-03T23:48:30.521Z,3.80
2023-04-03T23:51:16.212Z,4.20
2023-04-03T23:54:00.997Z,3.95
2023-04-03T23:56:46.430Z,4.03
2023-04-03T23:59:31.286Z,3.00
